sensor_id;sensor_type;location;lat;lon;timestamp;pressure;altitude;pressure_sealevel;temperature;humidity
57801;BME280;43627;42.728;23.256;2022-11-27T00:01:20;95937.03;;;0.55;100.00
57801;BME280;43627;42.728;23.256;2022-11-27T00:03:48;95954.31;;;0.57;100.00
57801;BME280;43627;42.728;23.256;2022-11-27T00:06:17;95964.25;;;0.53;100.00
57801;BME280;43627;42.728;23.256;2022-11-27T00:08:45;95941.84;;;0.32;100.00
57801;BME280;43627;42.728;23.256;2022-11-27T00:11:17;95960.25;;;0.33;100.00
57801;BME280;43627;42.728;23.256;2022-11-27T00:13:45;95948.75;;;0.29;100.00
57801;BME280;43627;42.728;23.256;2022-11-27T00:16:13;95959.09;;;0.31;100.00
57801;BME280;43627;42.728;23.256;2022-11-27T00:18:40;95957.50;;;0.22;100.00
57801;BME280;43627;42.728;23.256;2022-11-27T00:21:10;95952.06;;;0.15;100.00
57801;BME280;43627;42.728;23.256;2022-11-27T00:23:37;95958.53;;;0.11;100.00
57801;BME280;43627;42.728;23.256;2022-11-27T00:26:05;95964.97;;;0.03;100.00
57801;BME280;43627;42.728;23.256;2022-11-27T00:28:33;95961.84;;;-0.03;100.00
57801;BME280;43627;42.728;23.256;2022-11-27T00:31:03;95952.13;;;-0.18;100.00
57801;BME280;43627;42.728;23.256;2022-11-27T00:33:31;95970.47;;;-0.20;100.00
57801;BME280;43627;42.728;23.256;2022-11-27T00:36:05;95964.69;;;-0.26;100.00
57801;BME280;43627;42.728;23.256;2022-11-27T00:38:33;95970.25;;;-0.42;100.00
57801;BME280;43627;42.728;23.256;2022-11-27T00:41:16;95961.13;;;-0.37;100.00
57801;BME280;43627;42.728;23.256;2022-11-27T00:43:44;95967.16;;;-0.44;100.00
57801;BME280;43627;42.728;23.256;2022-11-27T00:46:13;95964.53;;;-0.40;100.00
57801;BME280;43627;42.728;23.256;2022-11-27T00:48:40;95970.63;;;-0.43;100.00
57801;BME280;43627;42.728;23.256;2022-11-27T00:51:11;95972.25;;;-0.35;100.00
57801;BME280;43627;42.728;23.256;2022-11-27T00:53:38;95959.91;;;-0.43;100.00
57801;BME280;43627;42.728;23.256;2022-11-27T00:56:05;95985.19;;;-0.41;100.00
57801;BME280;43627;42.728;23.256;2022-11-27T00:58:33;95980.03;;;-0.23;100.00
57801;BME280;43627;42.728;23.256;2022-11-27T01:01:04;95975.53;;;-0.12;100.00
57801;BME280;43627;42.728;23.256;2022-11-27T01:03:31;95986.44;;;0.03;100.00
57801;BME280;43627;42.728;23.256;2022-11-27T01:06:05;95969.50;;;-0.02;100.00
57801;BME280;43627;42.728;23.256;2022-11-27T01:08:33;95971.09;;;0.03;100.00
57801;BME280;43627;42.728;23.256;2022-11-27T01:11:00;95980.31;;;0.06;100.00
57801;BME280;43627;42.728;23.256;2022-11-27T01:13:31;95979.25;;;0.14;100.00
57801;BME280;43627;42.728;23.256;2022-11-27T01:18:28;95972.34;;;0.13;100.00
57801;BME280;43627;42.728;23.256;2022-11-27T01:20:55;95955.88;;;0.14;100.00
57801;BME280;43627;42.728;23.256;2022-11-27T01:23:22;95958.25;;;0.23;100.00
57801;BME280;43627;42.728;23.256;2022-11-27T01:25:50;95962.84;;;0.22;100.00
57801;BME280;43627;42.728;23.256;2022-11-27T01:28:20;95954.75;;;0.19;100.00
57801;BME280;43627;42.728;23.256;2022-11-27T01:30:48;95960.59;;;0.28;100.00
57801;BME280;43627;42.728;23.256;2022-11-27T01:33:15;95953.75;;;0.34;100.00
57801;BME280;43627;42.728;23.256;2022-11-27T01:35:42;95951.41;;;0.29;100.00
57801;BME280;43627;42.728;23.256;2022-11-27T01:38:09;95923.25;;;0.09;100.00
57801;BME280;43627;42.728;23.256;2022-11-27T01:40:36;95948.22;;;0.16;100.00
57801;BME280;43627;42.728;23.256;2022-11-27T01:43:02;95942.50;;;0.18;100.00
57801;BME280;43627;42.728;23.256;2022-11-27T01:45:29;95929.31;;;-0.02;100.00
57801;BME280;43627;42.728;23.256;2022-11-27T01:47:59;95938.25;;;0.13;100.00
57801;BME280;43627;42.728;23.256;2022-11-27T01:50:33;95915.56;;;0.04;100.00
57801;BME280;43627;42.728;23.256;2022-11-27T01:53:10;95939.03;;;0.14;100.00
57801;BME280;43627;42.728;23.256;2022-11-27T01:55:41;95928.97;;;0.04;100.00
57801;BME280;43627;42.728;23.256;2022-11-27T01:58:18;95938.22;;;0.10;100.00
57801;BME280;43627;42.728;23.256;2022-11-27T02:00:45;95939.03;;;0.14;100.00
57801;BME280;43627;42.728;23.256;2022-11-27T02:03:12;95936.78;;;0.23;100.00
57801;BME280;43627;42.728;23.256;2022-11-27T02:05:39;95943.00;;;0.34;100.00
57801;BME280;43627;42.728;23.256;2022-11-27T02:08:08;95934.94;;;0.31;100.00
57801;BME280;43627;42.728;23.256;2022-11-27T02:15:52;95938.41;;;0.31;100.00
57801;BME280;43627;42.728;23.256;2022-11-27T02:21:35;95930.75;;;0.37;100.00
57801;BME280;43627;42.728;23.256;2022-11-27T02:26:48;95946.84;;;0.33;100.00
57801;BME280;43627;42.728;23.256;2022-11-27T02:29:20;95947.84;;;0.18;100.00
57801;BME280;43627;42.728;23.256;2022-11-27T02:35:05;95954.81;;;0.26;100.00
57801;BME280;43627;42.728;23.256;2022-11-27T02:37:45;95949.00;;;0.17;100.00
57801;BME280;43627;42.728;23.256;2022-11-27T02:40:27;95944.44;;;0.21;100.00
57801;BME280;43627;42.728;23.256;2022-11-27T02:45:46;95928.66;;;0.12;100.00
57801;BME280;43627;42.728;23.256;2022-11-27T02:48:17;95926.41;;;0.18;100.00
57801;BME280;43627;42.728;23.256;2022-11-27T02:50:47;95948.31;;;0.27;100.00
57801;BME280;43627;42.728;23.256;2022-11-27T02:53:20;95936.03;;;0.26;100.00
57801;BME280;43627;42.728;23.256;2022-11-27T02:55:49;95952.19;;;0.30;100.00
57801;BME280;43627;42.728;23.256;2022-11-27T02:58:20;95961.78;;;0.34;100.00
57801;BME280;43627;42.728;23.256;2022-11-27T03:00:49;95943.81;;;0.38;100.00
57801;BME280;43627;42.728;23.256;2022-11-27T03:03:19;95954.56;;;0.42;100.00
57801;BME280;43627;42.728;23.256;2022-11-27T03:05:49;95936.88;;;0.30;100.00
57801;BME280;43627;42.728;23.256;2022-11-27T03:08:37;95927.72;;;0.38;100.00
57801;BME280;43627;42.728;23.256;2022-11-27T03:11:07;95955.00;;;0.47;100.00
57801;BME280;43627;42.728;23.256;2022-11-27T03:13:54;95944.59;;;0.39;100.00
57801;BME280;43627;42.728;23.256;2022-11-27T03:19:22;95955.88;;;0.66;100.00
57801;BME280;43627;42.728;23.256;2022-11-27T03:21:54;95953.19;;;0.62;100.00
57801;BME280;43627;42.728;23.256;2022-11-27T03:24:22;95955.94;;;0.73;100.00
57801;BME280;43627;42.728;23.256;2022-11-27T03:26:50;95964.75;;;0.73;100.00
57801;BME280;43627;42.728;23.256;2022-11-27T03:29:21;95961.69;;;0.71;100.00
57801;BME280;43627;42.728;23.256;2022-11-27T03:31:49;95968.66;;;0.79;100.00
57801;BME280;43627;42.728;23.256;2022-11-27T03:34:15;95962.56;;;0.86;100.00
57801;BME280;43627;42.728;23.256;2022-11-27T03:36:44;95962.56;;;0.90;100.00
57801;BME280;43627;42.728;23.256;2022-11-27T03:39:11;95949.34;;;0.63;100.00
57801;BME280;43627;42.728;23.256;2022-11-27T03:41:53;95961.75;;;0.78;100.00
57801;BME280;43627;42.728;23.256;2022-11-27T03:44:37;95948.28;;;0.75;100.00
57801;BME280;43627;42.728;23.256;2022-11-27T03:55:08;95953.22;;;0.66;100.00
57801;BME280;43627;42.728;23.256;2022-11-27T03:57:57;95950.13;;;0.64;100.00
57801;BME280;43627;42.728;23.256;2022-11-27T04:00:29;95953.94;;;0.59;100.00
57801;BME280;43627;42.728;23.256;2022-11-27T04:02:57;95954.78;;;0.70;100.00
57801;BME280;43627;42.728;23.256;2022-11-27T04:05:24;95925.91;;;0.56;100.00
57801;BME280;43627;42.728;23.256;2022-11-27T04:07:51;95937.88;;;0.66;100.00
57801;BME280;43627;42.728;23.256;2022-11-27T04:10:18;95949.47;;;0.77;100.00
57801;BME280;43627;42.728;23.256;2022-11-27T04:12:45;95947.19;;;0.83;100.00
57801;BME280;43627;42.728;23.256;2022-11-27T04:15:12;95926.75;;;0.64;100.00
57801;BME280;43627;42.728;23.256;2022-11-27T04:17:39;95938.63;;;0.60;100.00
57801;BME280;43627;42.728;23.256;2022-11-27T04:20:06;95930.63;;;0.67;100.00
57801;BME280;43627;42.728;23.256;2022-11-27T04:22:33;95913.31;;;0.57;100.00
57801;BME280;43627;42.728;23.256;2022-11-27T04:25:00;95928.97;;;0.55;100.00
57801;BME280;43627;42.728;23.256;2022-11-27T04:27:26;95919.72;;;0.45;100.00
57801;BME280;43627;42.728;23.256;2022-11-27T04:29:53;95940.53;;;0.63;100.00
57801;BME280;43627;42.728;23.256;2022-11-27T04:32:20;95929.34;;;0.53;100.00
57801;BME280;43627;42.728;23.256;2022-11-27T04:34:47;95944.69;;;0.53;100.00
57801;BME280;43627;42.728;23.256;2022-11-27T04:37:14;95944.69;;;0.49;100.00
57801;BME280;43627;42.728;23.256;2022-11-27T04:39:40;95943.16;;;0.55;100.00
57801;BME280;43627;42.728;23.256;2022-11-27T04:42:08;95955.81;;;0.55;100.00
57801;BME280;43627;42.728;23.256;2022-11-27T04:44:35;95958.13;;;0.56;100.00
57801;BME280;43627;42.728;23.256;2022-11-27T04:47:01;95946.53;;;0.45;100.00
57801;BME280;43627;42.728;23.256;2022-11-27T04:49:28;95945.75;;;0.41;100.00
57801;BME280;43627;42.728;23.256;2022-11-27T04:51:55;95963.78;;;0.44;100.00
57801;BME280;43627;42.728;23.256;2022-11-27T04:54:22;95964.19;;;0.46;100.00
57801;BME280;43627;42.728;23.256;2022-11-27T04:56:49;95965.28;;;0.38;100.00
57801;BME280;43627;42.728;23.256;2022-11-27T04:59:15;95957.66;;;0.44;100.00
57801;BME280;43627;42.728;23.256;2022-11-27T05:01:42;95947.69;;;0.44;100.00
57801;BME280;43627;42.728;23.256;2022-11-27T05:04:09;95952.22;;;0.37;100.00
57801;BME280;43627;42.728;23.256;2022-11-27T05:06:35;95949.19;;;0.38;100.00
57801;BME280;43627;42.728;23.256;2022-11-27T05:09:02;95952.66;;;0.39;100.00
57801;BME280;43627;42.728;23.256;2022-11-27T05:11:30;95941.81;;;0.28;100.00
57801;BME280;43627;42.728;23.256;2022-11-27T05:13:57;95943.00;;;0.34;100.00
57801;BME280;43627;42.728;23.256;2022-11-27T05:16:56;95964.50;;;0.38;100.00
57801;BME280;43627;42.728;23.256;2022-11-27T05:19:26;95951.00;;;0.27;100.00
57801;BME280;43627;42.728;23.256;2022-11-27T05:21:53;95959.88;;;0.31;100.00
57801;BME280;43627;42.728;23.256;2022-11-27T05:24:22;95960.69;;;0.39;100.00
57801;BME280;43627;42.728;23.256;2022-11-27T05:26:50;95968.81;;;0.49;100.00
57801;BME280;43627;42.728;23.256;2022-11-27T05:29:17;95959.59;;;0.47;100.00
57801;BME280;43627;42.728;23.256;2022-11-27T05:31:44;95958.47;;;0.48;100.00
57801;BME280;43627;42.728;23.256;2022-11-27T05:34:11;95965.78;;;0.54;100.00
57801;BME280;43627;42.728;23.256;2022-11-27T05:36:38;95978.50;;;0.61;100.00
57801;BME280;43627;42.728;23.256;2022-11-27T05:39:06;95972.34;;;0.61;100.00
57801;BME280;43627;42.728;23.256;2022-11-27T05:41:35;95976.91;;;0.56;100.00
57801;BME280;43627;42.728;23.256;2022-11-27T05:44:03;95974.19;;;0.49;100.00
57801;BME280;43627;42.728;23.256;2022-11-27T05:46:30;95972.34;;;0.57;100.00
57801;BME280;43627;42.728;23.256;2022-11-27T05:48:57;95973.56;;;0.67;100.00
57801;BME280;43627;42.728;23.256;2022-11-27T05:51:24;95973.25;;;0.79;100.00
57801;BME280;43627;42.728;23.256;2022-11-27T05:53:51;95957.91;;;0.79;100.00
57801;BME280;43627;42.728;23.256;2022-11-27T05:56:18;95957.09;;;0.75;100.00
57801;BME280;43627;42.728;23.256;2022-11-27T05:58:46;95974.69;;;0.66;100.00
57801;BME280;43627;42.728;23.256;2022-11-27T06:01:15;95983.88;;;0.65;100.00
57801;BME280;43627;42.728;23.256;2022-11-27T06:03:42;95972.75;;;0.63;100.00
57801;BME280;43627;42.728;23.256;2022-11-27T06:06:12;95992.81;;;0.76;100.00
57801;BME280;43627;42.728;23.256;2022-11-27T06:08:40;95987.81;;;0.78;100.00
57801;BME280;43627;42.728;23.256;2022-11-27T06:11:09;95971.59;;;0.64;100.00
57801;BME280;43627;42.728;23.256;2022-11-27T06:13:36;95994.59;;;0.61;100.00
57801;BME280;43627;42.728;23.256;2022-11-27T06:16:08;95990.50;;;0.78;100.00
57801;BME280;43627;42.728;23.256;2022-11-27T06:18:36;95995.50;;;0.79;100.00
57801;BME280;43627;42.728;23.256;2022-11-27T06:21:08;95978.94;;;0.70;100.00
57801;BME280;43627;42.728;23.256;2022-11-27T06:23:35;95998.19;;;0.79;100.00
57801;BME280;43627;42.728;23.256;2022-11-27T06:26:28;96005.88;;;0.84;100.00
57801;BME280;43627;42.728;23.256;2022-11-27T06:28:57;95999.41;;;0.93;100.00
57801;BME280;43627;42.728;23.256;2022-11-27T06:31:27;95995.25;;;0.99;100.00
57801;BME280;43627;42.728;23.256;2022-11-27T06:33:54;95976.88;;;1.04;100.00
57801;BME280;43627;42.728;23.256;2022-11-27T06:36:25;95986.09;;;1.10;100.00
57801;BME280;43627;42.728;23.256;2022-11-27T06:38:52;95997.66;;;1.18;100.00
57801;BME280;43627;42.728;23.256;2022-11-27T06:41:21;95986.53;;;1.16;100.00
57801;BME280;43627;42.728;23.256;2022-11-27T06:43:50;95985.31;;;1.06;100.00
57801;BME280;43627;42.728;23.256;2022-11-27T06:46:18;95998.84;;;1.24;100.00
57801;BME280;43627;42.728;23.256;2022-11-27T06:48:48;95992.72;;;1.24;100.00
57801;BME280;43627;42.728;23.256;2022-11-27T06:51:18;95995.75;;;1.22;100.00
57801;BME280;43627;42.728;23.256;2022-11-27T06:53:46;95996.19;;;1.28;100.00
57801;BME280;43627;42.728;23.256;2022-11-27T06:56:16;95988.47;;;1.23;100.00
57801;BME280;43627;42.728;23.256;2022-11-27T06:58:43;95993.91;;;1.33;100.00
57801;BME280;43627;42.728;23.256;2022-11-27T07:01:15;95994.69;;;1.37;100.00
57801;BME280;43627;42.728;23.256;2022-11-27T07:03:43;95989.31;;;1.41;100.00
57801;BME280;43627;42.728;23.256;2022-11-27T07:06:14;95987.47;;;1.52;100.00
57801;BME280;43627;42.728;23.256;2022-11-27T07:08:41;95999.84;;;1.71;100.00
57801;BME280;43627;42.728;23.256;2022-11-27T07:11:11;95991.03;;;1.85;100.00
57801;BME280;43627;42.728;23.256;2022-11-27T07:13:38;95991.47;;;2.12;100.00
57801;BME280;43627;42.728;23.256;2022-11-27T07:16:08;95990.72;;;2.15;100.00
57801;BME280;43627;42.728;23.256;2022-11-27T07:18:38;95965.34;;;2.12;100.00
57801;BME280;43627;42.728;23.256;2022-11-27T07:21:05;95981.50;;;2.19;100.00
57801;BME280;43627;42.728;23.256;2022-11-27T07:23:32;95984.59;;;2.39;100.00
57801;BME280;43627;42.728;23.256;2022-11-27T07:26:13;95965.38;;;2.41;100.00
57801;BME280;43627;42.728;23.256;2022-11-27T07:28:41;95978.44;;;2.53;100.00
57801;BME280;43627;42.728;23.256;2022-11-27T07:31:13;95984.59;;;2.50;100.00
57801;BME280;43627;42.728;23.256;2022-11-27T07:33:40;95969.22;;;2.47;100.00
57801;BME280;43627;42.728;23.256;2022-11-27T07:36:11;95981.13;;;2.53;100.00
57801;BME280;43627;42.728;23.256;2022-11-27T07:38:38;95974.97;;;2.42;100.00
57801;BME280;43627;42.728;23.256;2022-11-27T07:41:06;95976.13;;;2.44;100.00
57801;BME280;43627;42.728;23.256;2022-11-27T07:43:33;95988.84;;;2.40;100.00
57801;BME280;43627;42.728;23.256;2022-11-27T07:46:05;95974.22;;;2.31;100.00
57801;BME280;43627;42.728;23.256;2022-11-27T07:48:32;95979.97;;;2.29;100.00
57801;BME280;43627;42.728;23.256;2022-11-27T07:50:59;95973.44;;;2.26;100.00
57801;BME280;43627;42.728;23.256;2022-11-27T07:53:26;95985.34;;;2.36;100.00
57801;BME280;43627;42.728;23.256;2022-11-27T07:55:53;95964.22;;;2.27;100.00
57801;BME280;43627;42.728;23.256;2022-11-27T07:58:20;95975.75;;;2.39;100.00
57801;BME280;43627;42.728;23.256;2022-11-27T08:00:46;95966.91;;;2.42;100.00
57801;BME280;43627;42.728;23.256;2022-11-27T08:03:14;95957.31;;;2.41;100.00
57801;BME280;43627;42.728;23.256;2022-11-27T08:05:41;95968.44;;;2.43;100.00
57801;BME280;43627;42.728;23.256;2022-11-27T08:08:09;95970.00;;;2.29;100.00
57801;BME280;43627;42.728;23.256;2022-11-27T08:10:37;95976.50;;;2.36;100.00
57801;BME280;43627;42.728;23.256;2022-11-27T08:13:04;95961.53;;;2.27;100.00
57801;BME280;43627;42.728;23.256;2022-11-27T08:15:31;95967.69;;;2.39;100.00
57801;BME280;43627;42.728;23.256;2022-11-27T08:17:58;95976.91;;;2.52;100.00
57801;BME280;43627;42.728;23.256;2022-11-27T08:20:25;95964.59;;;2.44;100.00
57801;BME280;43627;42.728;23.256;2022-11-27T08:22:52;95981.16;;;2.67;100.00
57801;BME280;43627;42.728;23.256;2022-11-27T08:25:26;95979.22;;;2.57;100.00
57801;BME280;43627;42.728;23.256;2022-11-27T08:27:53;95969.19;;;2.65;100.00
57801;BME280;43627;42.728;23.256;2022-11-27T08:30:20;95971.91;;;2.79;100.00
57801;BME280;43627;42.728;23.256;2022-11-27T08:32:49;95977.28;;;2.82;100.00
57801;BME280;43627;42.728;23.256;2022-11-27T08:35:16;95974.97;;;2.81;100.00
57801;BME280;43627;42.728;23.256;2022-11-27T08:37:43;95974.97;;;2.95;100.00
57801;BME280;43627;42.728;23.256;2022-11-27T08:40:10;95974.19;;;3.05;100.00
57801;BME280;43627;42.728;23.256;2022-11-27T08:42:36;95970.31;;;3.03;100.00
57801;BME280;43627;42.728;23.256;2022-11-27T08:45:03;95954.94;;;2.93;100.00
57801;BME280;43627;42.728;23.256;2022-11-27T08:47:30;95960.34;;;3.03;100.00
57801;BME280;43627;42.728;23.256;2022-11-27T08:49:58;95962.56;;;3.30;100.00
57801;BME280;43627;42.728;23.256;2022-11-27T08:52:24;95966.84;;;3.17;100.00
57801;BME280;43627;42.728;23.256;2022-11-27T08:54:51;95949.91;;;3.16;100.00
57801;BME280;43627;42.728;23.256;2022-11-27T08:57:23;95947.91;;;3.34;100.00
57801;BME280;43627;42.728;23.256;2022-11-27T08:59:50;95954.81;;;3.46;100.00
57801;BME280;43627;42.728;23.256;2022-11-27T09:02:17;95957.09;;;3.51;100.00
57801;BME280;43627;42.728;23.256;2022-11-27T09:04:43;95963.22;;;3.59;100.00
57801;BME280;43627;42.728;23.256;2022-11-27T09:07:10;95962.91;;;3.42;100.00
57801;BME280;43627;42.728;23.256;2022-11-27T09:09:39;95944.41;;;3.44;100.00
57801;BME280;43627;42.728;23.256;2022-11-27T09:12:07;95937.50;;;3.36;100.00
57801;BME280;43627;42.728;23.256;2022-11-27T09:14:33;95959.03;;;3.51;100.00
57801;BME280;43627;42.728;23.256;2022-11-27T09:17:00;95929.09;;;3.17;100.00
57801;BME280;43627;42.728;23.256;2022-11-27T09:19:27;95950.19;;;3.47;100.00
57801;BME280;43627;42.728;23.256;2022-11-27T09:21:54;95932.72;;;3.72;100.00
57801;BME280;43627;42.728;23.256;2022-11-27T09:24:21;95948.56;;;3.60;100.00
57801;BME280;43627;42.728;23.256;2022-11-27T09:26:48;95941.94;;;3.82;100.00
57801;BME280;43627;42.728;23.256;2022-11-27T09:29:16;95946.50;;;3.92;100.00
57801;BME280;43627;42.728;23.256;2022-11-27T09:31:43;95924.56;;;3.83;100.00
57801;BME280;43627;42.728;23.256;2022-11-27T09:34:09;95945.31;;;3.97;100.00
57801;BME280;43627;42.728;23.256;2022-11-27T09:36:36;95925.16;;;4.12;100.00
57801;BME280;43627;42.728;23.256;2022-11-27T09:39:03;95920.59;;;4.02;100.00
57801;BME280;43627;42.728;23.256;2022-11-27T09:41:49;95934.47;;;4.08;100.00
57801;BME280;43627;42.728;23.256;2022-11-27T09:44:41;95933.75;;;3.96;100.00
57801;BME280;43627;42.728;23.256;2022-11-27T09:47:22;95928.66;;;4.09;100.00
57801;BME280;43627;42.728;23.256;2022-11-27T09:50:27;95916.19;;;4.26;100.00
57801;BME280;43627;42.728;23.256;2022-11-27T09:53:31;95916.81;;;4.44;100.00
57801;BME280;43627;42.728;23.256;2022-11-27T09:56:03;95899.50;;;4.42;100.00
57801;BME280;43627;42.728;23.256;2022-11-27T09:58:38;95912.03;;;4.63;100.00
57801;BME280;43627;42.728;23.256;2022-11-27T10:01:18;95909.28;;;4.70;100.00
57801;BME280;43627;42.728;23.256;2022-11-27T10:03:46;95907.09;;;4.95;100.00
57801;BME280;43627;42.728;23.256;2022-11-27T10:17:00;95889.84;;;5.20;100.00
57801;BME280;43627;42.728;23.256;2022-11-27T10:19:43;95887.50;;;5.22;100.00
57801;BME280;43627;42.728;23.256;2022-11-27T10:22:28;95885.94;;;5.21;100.00
57801;BME280;43627;42.728;23.256;2022-11-27T10:25:17;95874.22;;;5.34;100.00
57801;BME280;43627;42.728;23.256;2022-11-27T10:30:46;95866.22;;;5.54;100.00
57801;BME280;43627;42.728;23.256;2022-11-27T10:33:19;95861.44;;;5.65;100.00
57801;BME280;43627;42.728;23.256;2022-11-27T10:35:47;95857.53;;;5.70;100.00
57801;BME280;43627;42.728;23.256;2022-11-27T10:38:23;95849.91;;;5.88;100.00
57801;BME280;43627;42.728;23.256;2022-11-27T10:41:10;95817.28;;;5.72;100.00
57801;BME280;43627;42.728;23.256;2022-11-27T10:44:01;95816.19;;;5.69;100.00
57801;BME280;43627;42.728;23.256;2022-11-27T10:46:31;95832.03;;;5.98;100.00
57801;BME280;43627;42.728;23.256;2022-11-27T10:49:03;95846.03;;;5.62;100.00
57801;BME280;43627;42.728;23.256;2022-11-27T10:51:33;95824.84;;;5.57;100.00
57801;BME280;43627;42.728;23.256;2022-11-27T10:54:03;95836.16;;;5.49;100.00
57801;BME280;43627;42.728;23.256;2022-11-27T10:56:35;95842.81;;;5.71;100.00
57801;BME280;43627;42.728;23.256;2022-11-27T10:59:09;95804.97;;;5.67;100.00
57801;BME280;43627;42.728;23.256;2022-11-27T11:01:47;95799.13;;;5.72;100.00
57801;BME280;43627;42.728;23.256;2022-11-27T11:04:20;95816.94;;;5.97;100.00
57801;BME280;43627;42.728;23.256;2022-11-27T11:07:22;95827.97;;;6.10;100.00
57801;BME280;43627;42.728;23.256;2022-11-27T11:09:50;95819.41;;;6.11;100.00
57801;BME280;43627;42.728;23.256;2022-11-27T11:12:19;95827.84;;;5.90;99.15
57801;BME280;43627;42.728;23.256;2022-11-27T11:14:55;95807.75;;;5.87;97.63
57801;BME280;43627;42.728;23.256;2022-11-27T11:17:26;95813.06;;;5.98;99.55
57801;BME280;43627;42.728;23.256;2022-11-27T11:19:54;95816.56;;;5.68;97.45
57801;BME280;43627;42.728;23.256;2022-11-27T11:22:21;95820.84;;;5.38;100.00
57801;BME280;43627;42.728;23.256;2022-11-27T11:24:52;95810.50;;;5.33;100.00
57801;BME280;43627;42.728;23.256;2022-11-27T11:27:29;95813.41;;;5.46;100.00
57801;BME280;43627;42.728;23.256;2022-11-27T11:30:00;95798.94;;;5.29;100.00
57801;BME280;43627;42.728;23.256;2022-11-27T11:32:32;95791.09;;;5.38;100.00
57801;BME280;43627;42.728;23.256;2022-11-27T11:35:09;95791.31;;;5.51;100.00
57801;BME280;43627;42.728;23.256;2022-11-27T11:37:43;95783.13;;;5.55;100.00
57801;BME280;43627;42.728;23.256;2022-11-27T11:42:55;95782.78;;;5.53;100.00
57801;BME280;43627;42.728;23.256;2022-11-27T11:45:26;95774.25;;;5.54;100.00
57801;BME280;43627;42.728;23.256;2022-11-27T11:48:00;95777.78;;;5.51;100.00
57801;BME280;43627;42.728;23.256;2022-11-27T11:50:36;95777.31;;;5.56;100.00
57801;BME280;43627;42.728;23.256;2022-11-27T12:07:10;95769.97;;;5.57;100.00
57801;BME280;43627;42.728;23.256;2022-11-27T12:10:13;95768.63;;;5.68;100.00
57801;BME280;43627;42.728;23.256;2022-11-27T12:35:35;95745.84;;;5.15;100.00
57801;BME280;43627;42.728;23.256;2022-11-27T12:38:13;95743.31;;;5.01;100.00
57801;BME280;43627;42.728;23.256;2022-11-27T12:41:00;95738.41;;;4.93;100.00
57801;BME280;43627;42.728;23.256;2022-11-27T12:43:36;95732.22;;;4.92;100.00
57801;BME280;43627;42.728;23.256;2022-11-27T12:48:40;95736.56;;;4.86;100.00
57801;BME280;43627;42.728;23.256;2022-11-27T12:51:14;95717.75;;;4.79;100.00
57801;BME280;43627;42.728;23.256;2022-11-27T12:53:46;95684.84;;;4.57;100.00
57801;BME280;43627;42.728;23.256;2022-11-27T12:56:21;95724.13;;;4.92;100.00
57801;BME280;43627;42.728;23.256;2022-11-27T12:58:56;95706.25;;;4.71;100.00
57801;BME280;43627;42.728;23.256;2022-11-27T13:01:41;95691.06;;;4.81;100.00
57801;BME280;43627;42.728;23.256;2022-11-27T13:09:50;95723.47;;;5.11;100.00
57801;BME280;43627;42.728;23.256;2022-11-27T13:12:28;95695.97;;;4.90;100.00
57801;BME280;43627;42.728;23.256;2022-11-27T13:15:00;95709.59;;;4.82;100.00
57801;BME280;43627;42.728;23.256;2022-11-27T13:17:36;95712.44;;;5.02;100.00
57801;BME280;43627;42.728;23.256;2022-11-27T13:20:05;95686.84;;;4.80;100.00
57801;BME280;43627;42.728;23.256;2022-11-27T13:22:41;95710.88;;;5.01;100.00
57801;BME280;43627;42.728;23.256;2022-11-27T13:25:12;95705.19;;;4.96;100.00
57801;BME280;43627;42.728;23.256;2022-11-27T13:27:45;95701.53;;;4.79;100.00
57801;BME280;43627;42.728;23.256;2022-11-27T13:30:25;95714.50;;;4.91;100.00
57801;BME280;43627;42.728;23.256;2022-11-27T13:32:58;95701.38;;;4.90;100.00
57801;BME280;43627;42.728;23.256;2022-11-27T13:35:41;95708.66;;;4.93;100.00
57801;BME280;43627;42.728;23.256;2022-11-27T13:38:12;95710.03;;;4.77;100.00
57801;BME280;43627;42.728;23.256;2022-11-27T13:40:42;95708.16;;;4.74;100.00
57801;BME280;43627;42.728;23.256;2022-11-27T13:43:19;95691.81;;;4.85;100.00
57801;BME280;43627;42.728;23.256;2022-11-27T13:45:47;95708.47;;;4.80;100.00
57801;BME280;43627;42.728;23.256;2022-11-27T13:48:34;95707.34;;;4.77;100.00
57801;BME280;43627;42.728;23.256;2022-11-27T13:51:05;95696.28;;;4.68;100.00
57801;BME280;43627;42.728;23.256;2022-11-27T13:53:36;95697.34;;;4.74;100.00
57801;BME280;43627;42.728;23.256;2022-11-27T13:56:05;95692.72;;;4.75;100.00
57801;BME280;43627;42.728;23.256;2022-11-27T13:58:39;95703.16;;;4.73;100.00
57801;BME280;43627;42.728;23.256;2022-11-27T14:03:39;95688.53;;;4.70;100.00
57801;BME280;43627;42.728;23.256;2022-11-27T14:06:24;95721.06;;;4.90;100.00
57801;BME280;43627;42.728;23.256;2022-11-27T14:08:58;95703.88;;;4.77;100.00
57801;BME280;43627;42.728;23.256;2022-11-27T14:11:35;95711.09;;;4.87;100.00
57801;BME280;43627;42.728;23.256;2022-11-27T14:14:23;95691.81;;;4.85;100.00
57801;BME280;43627;42.728;23.256;2022-11-27T14:16:56;95721.84;;;4.91;100.00
57801;BME280;43627;42.728;23.256;2022-11-27T14:19:30;95708.03;;;4.85;100.00
57801;BME280;43627;42.728;23.256;2022-11-27T14:22:01;95692.75;;;4.71;97.25
57801;BME280;43627;42.728;23.256;2022-11-27T14:24:40;95715.88;;;4.76;94.68
57801;BME280;43627;42.728;23.256;2022-11-27T14:27:19;95702.31;;;4.79;92.78
57801;BME280;43627;42.728;23.256;2022-11-27T14:29:49;95707.75;;;4.76;92.20
57801;BME280;43627;42.728;23.256;2022-11-27T14:32:18;95719.25;;;4.83;90.46
57801;BME280;43627;42.728;23.256;2022-11-27T14:34:46;95715.81;;;4.79;89.77
57801;BME280;43627;42.728;23.256;2022-11-27T14:37:24;95714.63;;;4.80;89.19
57801;BME280;43627;42.728;23.256;2022-11-27T14:39:52;95714.69;;;4.77;89.64
57801;BME280;43627;42.728;23.256;2022-11-27T14:42:23;95682.91;;;4.57;93.79
57801;BME280;43627;42.728;23.256;2022-11-27T14:45:05;95725.03;;;4.82;92.32